PWSweather.com
Personal Weather Stations
Station Observations
CANDIOTINO
Barrio Candioti Norte, Santa FeAR 3000

Barrio Candioti NorteSanta FeAR 3000

Lat: -31.632778, Lon: -60.695556

Elevation: 69

Station Type: WH-1081

http://www.eltiempoensantafe.com.ar

Latest ConditionsUpdated 3:15:01 PM GMT-03:57 Tuesday, Nov 12, 2019
Currently Today's Max Today's Min Today's Average
Temperature 90.3°F32.4°C 90.3°F32.4°C 67.8°F19.9°C 76.5°F24.7°C
Dew Point 63.5°F17.5°C 67.1°F19.5°C 56.5°F13.6°C 63.4°F17.4°C
Winds 0.7 mph ENE1.1 kmh ENE 8.3 mph -13.4 kmh - - 2.8 mph 4.5 kmh
Wind Gusts 7.6 mph12.2 kmh 15.2 mph24.5 kmh - -
Humidity 41% 83% 34% 65%
Pressure 29.70 in1005.8 mb 29.84 in1010.5 mb 29.70 in1005.8 mb -
Hour Temp Dew Point Humidity Winds Wind Gusts Pressure Precip Precip Rate Daily Precip Total
03:15 PM 90.3°F32.4°C 63.5°F17.5°C 41% 0.7 mph ENE1.1 kmh ENE 7.6 mph12.2 kmh 29.70 in1005.8 mb 0.00 in0.0 mm 0.00 in0.0 mm 0.00 in0.0 mm
03:00 PM 89.8°F32.1°C 60.1°F15.6°C 37% 1.6 mph E2.6 kmh E 9.2 mph14.8 kmh 29.70 in1005.8 mb 0.00 in0.0 mm 0.00 in0.0 mm 0.00 in0.0 mm
02:45 PM 88.5°F31.4°C 61.2°F16.2°C 40% 3.1 mph E5.0 kmh E 7.6 mph12.2 kmh 29.70 in1005.8 mb 0.00 in0.0 mm 0.00 in0.0 mm 0.00 in0.0 mm
02:30 PM 88.3°F31.3°C 56.5°F13.6°C 34% 3.8 mph E6.1 kmh E 9.2 mph14.8 kmh 29.72 in1006.4 mb 0.00 in0.0 mm 0.00 in0.0 mm 0.00 in0.0 mm
02:15 PM 88.2°F31.2°C 58.7°F14.8°C 37% 4.5 mph ESE7.2 kmh ESE 9.8 mph15.8 kmh 29.72 in1006.4 mb 0.00 in0.0 mm 0.00 in0.0 mm 0.00 in0.0 mm
02:00 PM 86.7°F30.4°C 61.6°F16.4°C 43% 1.6 mph E2.6 kmh E 9.2 mph14.8 kmh 29.72 in1006.4 mb 0.00 in0.0 mm 0.00 in0.0 mm 0.00 in0.0 mm
01:45 PM 87.1°F30.6°C 65.7°F18.7°C 49% 3.8 mph E6.1 kmh E 9.2 mph14.8 kmh 29.73 in1006.8 mb 0.00 in0.0 mm 0.00 in0.0 mm 0.00 in0.0 mm
01:30 PM 87.3°F30.7°C 66.4°F19.1°C 50% 2.2 mph ESE3.5 kmh ESE 8.3 mph13.4 kmh 29.73 in1006.8 mb 0.00 in0.0 mm 0.00 in0.0 mm 0.00 in0.0 mm
01:15 PM 86.5°F30.3°C 66.3°F19.1°C 51% 4.5 mph E7.2 kmh E 9.2 mph14.8 kmh 29.74 in1007.1 mb 0.00 in0.0 mm 0.00 in0.0 mm 0.00 in0.0 mm
01:00 PM 85.6°F29.8°C 67.1°F19.5°C 54% 2.2 mph NE3.5 kmh NE 9.8 mph15.8 kmh 29.74 in1007.1 mb 0.00 in0.0 mm 0.00 in0.0 mm 0.00 in0.0 mm
12:45 PM 84.6°F29.2°C 66.7°F19.3°C 55% 4.5 mph NE7.2 kmh NE 9.8 mph15.8 kmh 29.75 in1007.5 mb 0.00 in0.0 mm 0.00 in0.0 mm 0.00 in0.0 mm
12:30 PM 84.0°F28.9°C 66.7°F19.3°C 56% 5.4 mph E8.7 kmh E 11.4 mph18.3 kmh 29.75 in1007.5 mb 0.00 in0.0 mm 0.00 in0.0 mm 0.00 in0.0 mm
12:15 PM 84.7°F29.3°C 66.3°F19.1°C 54% 4.5 mph NNE7.2 kmh NNE 9.8 mph15.8 kmh 29.75 in1007.5 mb 0.00 in0.0 mm 0.00 in0.0 mm 0.00 in0.0 mm
12:00 PM 84.6°F29.2°C 66.1°F18.9°C 54% 4.5 mph E7.2 kmh E 9.8 mph15.8 kmh 29.77 in1008.1 mb 0.00 in0.0 mm 0.00 in0.0 mm 0.00 in0.0 mm
11:45 AM 83.7°F28.7°C 66.4°F19.1°C 56% 3.1 mph NE5.0 kmh NE 9.2 mph14.8 kmh 29.77 in1008.1 mb 0.00 in0.0 mm 0.00 in0.0 mm 0.00 in0.0 mm
11:30 AM 80.6°F27.0°C 65.5°F18.6°C 60% 4.5 mph NE7.2 kmh NE 9.8 mph15.8 kmh 29.78 in1008.5 mb 0.00 in0.0 mm 0.00 in0.0 mm 0.00 in0.0 mm
11:15 AM 81.1°F27.3°C 66.5°F19.2°C 61% 3.1 mph NNE5.0 kmh NNE 8.3 mph13.4 kmh 29.78 in1008.5 mb 0.00 in0.0 mm 0.00 in0.0 mm 0.00 in0.0 mm
11:00 AM 81.1°F27.3°C 65.0°F18.3°C 58% 3.8 mph NE6.1 kmh NE 13.6 mph21.9 kmh 29.78 in1008.5 mb 0.00 in0.0 mm 0.00 in0.0 mm 0.00 in0.0 mm
10:45 AM 81.5°F27.5°C 65.3°F18.5°C 58% 4.5 mph NE7.2 kmh NE 9.2 mph14.8 kmh 29.79 in1008.8 mb 0.00 in0.0 mm 0.00 in0.0 mm 0.00 in0.0 mm
10:30 AM 79.5°F26.4°C 65.4°F18.6°C 62% 4.5 mph NE7.2 kmh NE 9.8 mph15.8 kmh 29.79 in1008.8 mb 0.00 in0.0 mm 0.00 in0.0 mm 0.00 in0.0 mm
10:15 AM 77.9°F25.5°C 64.8°F18.2°C 64% 4.5 mph NNE7.2 kmh NNE 9.8 mph15.8 kmh 29.80 in1009.1 mb 0.00 in0.0 mm 0.00 in0.0 mm 0.00 in0.0 mm
10:00 AM 78.1°F25.6°C 64.5°F18.1°C 63% 2.2 mph NE3.5 kmh NE 11.4 mph18.3 kmh 29.79 in1008.8 mb 0.00 in0.0 mm 0.00 in0.0 mm 0.00 in0.0 mm
09:45 AM 77.5°F25.3°C 64.0°F17.8°C 63% 4.5 mph NNE7.2 kmh NNE 13.6 mph21.9 kmh 29.80 in1009.1 mb 0.00 in0.0 mm 0.00 in0.0 mm 0.00 in0.0 mm
09:30 AM 78.4°F25.8°C 64.8°F18.2°C 63% 8.3 mph NE13.4 kmh NE 12.1 mph19.5 kmh 29.80 in1009.1 mb 0.00 in0.0 mm 0.00 in0.0 mm 0.00 in0.0 mm
09:15 AM 78.1°F25.6°C 64.5°F18.1°C 63% 5.4 mph NNE8.7 kmh NNE 11.4 mph18.3 kmh 29.80 in1009.1 mb 0.00 in0.0 mm 0.00 in0.0 mm 0.00 in0.0 mm
09:00 AM 75.6°F24.2°C 63.4°F17.4°C 66% 6.0 mph NE9.7 kmh NE 11.4 mph18.3 kmh 29.80 in1009.1 mb 0.00 in0.0 mm 0.00 in0.0 mm 0.00 in0.0 mm
08:45 AM 77.7°F25.4°C 64.2°F17.9°C 63% 3.8 mph NE6.1 kmh NE 10.7 mph17.2 kmh 29.80 in1009.1 mb 0.00 in0.0 mm 0.00 in0.0 mm 0.00 in0.0 mm
08:30 AM 76.5°F24.7°C 63.9°F17.7°C 65% 2.2 mph NE3.5 kmh NE 9.8 mph15.8 kmh 29.80 in1009.1 mb 0.00 in0.0 mm 0.00 in0.0 mm 0.00 in0.0 mm
08:15 AM 75.0°F23.9°C 64.2°F17.9°C 69% 4.5 mph NE7.2 kmh NE 10.7 mph17.2 kmh 29.80 in1009.1 mb 0.00 in0.0 mm 0.00 in0.0 mm 0.00 in0.0 mm
08:00 AM 74.3°F23.5°C 63.1°F17.3°C 68% 3.8 mph NE6.1 kmh NE 15.2 mph24.5 kmh 29.80 in1009.1 mb 0.00 in0.0 mm 0.00 in0.0 mm 0.00 in0.0 mm
07:45 AM 74.3°F23.5°C 63.5°F17.5°C 69% 4.5 mph NE7.2 kmh NE 9.8 mph15.8 kmh 29.80 in1009.1 mb 0.00 in0.0 mm 0.00 in0.0 mm 0.00 in0.0 mm
07:30 AM 73.6°F23.1°C 63.2°F17.3°C 70% 3.1 mph NE5.0 kmh NE 9.2 mph14.8 kmh 29.80 in1009.1 mb 0.00 in0.0 mm 0.00 in0.0 mm 0.00 in0.0 mm
07:15 AM 73.0°F22.8°C 63.5°F17.5°C 72% 1.6 mph ENE2.6 kmh ENE 6.0 mph9.7 kmh 29.80 in1009.1 mb 0.00 in0.0 mm 0.00 in0.0 mm 0.00 in0.0 mm
07:00 AM 70.9°F21.6°C 62.6°F17.0°C 75% 2.2 mph E3.5 kmh E 7.6 mph12.2 kmh 29.79 in1008.8 mb 0.00 in0.0 mm 0.00 in0.0 mm 0.00 in0.0 mm
06:45 AM 70.2°F21.2°C 62.6°F17.0°C 77% 2.2 mph NE3.5 kmh NE 7.6 mph12.2 kmh 29.80 in1009.1 mb 0.00 in0.0 mm 0.00 in0.0 mm 0.00 in0.0 mm
06:30 AM 68.9°F20.5°C 62.5°F16.9°C 80% 4.5 mph ESE7.2 kmh ESE 7.6 mph12.2 kmh 29.79 in1008.8 mb 0.00 in0.0 mm 0.00 in0.0 mm 0.00 in0.0 mm
06:15 AM 68.2°F20.1°C 62.5°F16.9°C 82% 3.1 mph E5.0 kmh E 7.6 mph12.2 kmh 29.79 in1008.8 mb 0.00 in0.0 mm 0.00 in0.0 mm 0.00 in0.0 mm
06:00 AM 67.8°F19.9°C 62.5°F16.9°C 83% 1.6 mph E2.6 kmh E 4.5 mph7.2 kmh 29.79 in1008.8 mb 0.00 in0.0 mm 0.00 in0.0 mm 0.00 in0.0 mm
05:45 AM 68.0°F20.0°C 62.0°F16.7°C 81% 1.6 mph E2.6 kmh E 7.6 mph12.2 kmh 29.80 in1009.1 mb 0.00 in0.0 mm 0.00 in0.0 mm 0.00 in0.0 mm
05:30 AM 68.4°F20.2°C 62.3°F16.8°C 81% 3.1 mph E5.0 kmh E 7.6 mph12.2 kmh 29.78 in1008.5 mb 0.00 in0.0 mm 0.00 in0.0 mm 0.00 in0.0 mm
05:15 AM 68.5°F20.3°C 62.2°F16.8°C 80% 2.2 mph E3.5 kmh E 6.0 mph9.7 kmh 29.78 in1008.5 mb 0.00 in0.0 mm 0.00 in0.0 mm 0.00 in0.0 mm
05:00 AM 68.9°F20.5°C 62.1°F16.7°C 79% 0.7 mph E1.1 kmh E 5.4 mph8.7 kmh 29.78 in1008.5 mb 0.00 in0.0 mm 0.00 in0.0 mm 0.00 in0.0 mm
04:45 AM 69.1°F20.6°C 62.3°F16.8°C 79% 1.6 mph E2.6 kmh E 6.0 mph9.7 kmh 29.78 in1008.5 mb 0.00 in0.0 mm 0.00 in0.0 mm 0.00 in0.0 mm
04:30 AM 69.4°F20.8°C 62.3°F16.8°C 78% 3.1 mph E5.0 kmh E 5.4 mph8.7 kmh 29.79 in1008.8 mb 0.00 in0.0 mm 0.00 in0.0 mm 0.00 in0.0 mm
04:15 AM 69.6°F20.9°C 62.5°F16.9°C 78% 0.7 mph E1.1 kmh E 5.4 mph8.7 kmh 29.79 in1008.8 mb 0.00 in0.0 mm 0.00 in0.0 mm 0.00 in0.0 mm
04:00 AM 69.6°F20.9°C 62.5°F16.9°C 78% 0.7 mph E1.1 kmh E 6.0 mph9.7 kmh 29.79 in1008.8 mb 0.00 in0.0 mm 0.00 in0.0 mm 0.00 in0.0 mm
03:45 AM 70.2°F21.2°C 62.6°F17.0°C 77% 3.1 mph E5.0 kmh E 6.0 mph9.7 kmh 29.79 in1008.8 mb 0.00 in0.0 mm 0.00 in0.0 mm 0.00 in0.0 mm
03:30 AM 70.5°F21.4°C 62.2°F16.8°C 75% 0.7 mph ENE1.1 kmh ENE 4.5 mph7.2 kmh 29.79 in1008.8 mb 0.00 in0.0 mm 0.00 in0.0 mm 0.00 in0.0 mm
03:15 AM 70.7°F21.5°C 62.4°F16.9°C 75% 1.6 mph NE2.6 kmh NE 3.8 mph6.1 kmh 29.79 in1008.8 mb 0.00 in0.0 mm 0.00 in0.0 mm 0.00 in0.0 mm
03:00 AM 70.9°F21.6°C 62.2°F16.8°C 74% Calm Calm 3.8 mph6.1 kmh 29.81 in1009.5 mb 0.00 in0.0 mm 0.00 in0.0 mm 0.00 in0.0 mm
02:45 AM 71.2°F21.8°C 62.2°F16.8°C 73% Calm Calm 3.8 mph6.1 kmh 29.80 in1009.1 mb 0.00 in0.0 mm 0.00 in0.0 mm 0.00 in0.0 mm
02:30 AM 71.6°F22.0°C 62.1°F16.7°C 72% Calm Calm 3.8 mph6.1 kmh 29.80 in1009.1 mb 0.00 in0.0 mm 0.00 in0.0 mm 0.00 in0.0 mm
02:15 AM 72.0°F22.2°C 62.5°F16.9°C 72% Calm Calm 5.4 mph8.7 kmh 29.80 in1009.1 mb 0.00 in0.0 mm 0.00 in0.0 mm 0.00 in0.0 mm
02:00 AM 71.8°F22.1°C 62.3°F16.8°C 72% 0.7 mph NE1.1 kmh NE 3.8 mph6.1 kmh 29.80 in1009.1 mb 0.00 in0.0 mm 0.00 in0.0 mm 0.00 in0.0 mm
01:45 AM 72.1°F22.3°C 62.6°F17.0°C 72% 1.6 mph NE2.6 kmh NE 6.0 mph9.7 kmh 29.80 in1009.1 mb 0.00 in0.0 mm 0.00 in0.0 mm 0.00 in0.0 mm
01:30 AM 72.3°F22.4°C 62.8°F17.1°C 72% 0.7 mph NE1.1 kmh NE 3.8 mph6.1 kmh 29.80 in1009.1 mb 0.00 in0.0 mm 0.00 in0.0 mm 0.00 in0.0 mm
01:15 AM 72.7°F22.6°C 62.8°F17.1°C 71% Calm Calm 5.4 mph8.7 kmh 29.81 in1009.5 mb 0.00 in0.0 mm 0.00 in0.0 mm 0.00 in0.0 mm
01:00 AM 73.0°F22.8°C 63.1°F17.3°C 71% 1.6 mph NE2.6 kmh NE 6.0 mph9.7 kmh 29.82 in1009.8 mb 0.00 in0.0 mm 0.00 in0.0 mm 0.00 in0.0 mm
12:45 AM 73.2°F22.9°C 63.3°F17.4°C 71% 1.6 mph NNE2.6 kmh NNE 6.9 mph11.1 kmh 29.82 in1009.8 mb 0.00 in0.0 mm 0.00 in0.0 mm 0.00 in0.0 mm
12:30 AM 73.4°F23.0°C 62.6°F17.0°C 69% 1.6 mph NE2.6 kmh NE 6.0 mph9.7 kmh 29.82 in1009.8 mb 0.00 in0.0 mm 0.00 in0.0 mm 0.00 in0.0 mm
12:15 AM 73.8°F23.2°C 63.0°F17.2°C 69% 3.1 mph NE5.0 kmh NE 6.0 mph9.7 kmh 29.83 in1010.2 mb 0.00 in0.0 mm 0.00 in0.0 mm 0.00 in0.0 mm
12:00 AM 74.1°F23.4°C 63.3°F17.4°C 69% 3.8 mph NE6.1 kmh NE 6.9 mph11.1 kmh 29.84 in1010.5 mb 0.00 in0.0 mm 0.00 in0.0 mm 0.00 in0.0 mm